createdAt,value
2022-10-24T00:00:29.473Z,2.20
2022-10-24T00:02:56.447Z,2.08
2022-10-24T00:05:23.919Z,2.63
2022-10-24T00:07:50.852Z,1.63
2022-10-24T00:10:19.224Z,2.00
2022-10-24T00:12:46.551Z,2.00
2022-10-24T00:15:14.414Z,2.08
2022-10-24T00:17:41.296Z,1.95
2022-10-24T00:20:08.737Z,2.22
2022-10-24T00:22:35.819Z,2.55
2022-10-24T00:25:02.552Z,2.35
2022-10-24T00:27:29.279Z,2.15
2022-10-24T00:29:56.245Z,1.90
2022-10-24T00:32:23.011Z,2.08
2022-10-24T00:34:49.813Z,2.70
2022-10-24T00:37:16.712Z,1.95
2022-10-24T00:39:43.735Z,1.85
2022-10-24T00:42:12.408Z,2.38
2022-10-24T00:44:41.283Z,2.15
2022-10-24T00:47:23.293Z,2.20
2022-10-24T00:50:04.752Z,1.70
2022-10-24T00:52:36.715Z,1.90
2022-10-24T00:55:06.118Z,2.50
2022-10-24T00:57:54.902Z,2.25
2022-10-24T01:00:26.768Z,2.20
2022-10-24T01:02:53.740Z,2.35
2022-10-24T01:05:22.753Z,1.80
2022-10-24T01:07:52.373Z,2.95
2022-10-24T01:10:41.746Z,1.95
2022-10-24T01:13:17.373Z,2.10
2022-10-24T01:15:58.234Z,1.75
2022-10-24T01:18:32.589Z,1.70
2022-10-24T01:21:14.541Z,2.35
2022-10-24T01:24:06.874Z,1.95
2022-10-24T01:27:11.411Z,1.70
2022-10-24T01:29:59.851Z,1.80
2022-10-24T01:32:53.887Z,1.60
2022-10-24T01:35:35.823Z,2.28
2022-10-24T01:38:21.439Z,2.00
2022-10-24T01:40:54.670Z,2.20
2022-10-24T01:43:31.507Z,1.60
2022-10-24T01:46:08.008Z,1.50
2022-10-24T01:48:41.148Z,1.83
2022-10-24T01:51:09.303Z,1.70
2022-10-24T01:53:36.728Z,2.08
2022-10-24T01:56:03.703Z,1.70
2022-10-24T01:58:30.578Z,1.70
2022-10-24T02:01:03.261Z,1.70
2022-10-24T02:03:45.374Z,2.00
2022-10-24T02:06:20.866Z,1.80
2022-10-24T02:08:58.585Z,1.63
2022-10-24T02:11:25.788Z,1.63
2022-10-24T02:14:18.850Z,1.70
2022-10-24T02:16:46.499Z,1.83
2022-10-24T02:19:14.136Z,1.77
2022-10-24T02:21:46.572Z,1.75
2022-10-24T02:24:28.479Z,1.65
2022-10-24T02:27:01.327Z,1.60
2022-10-24T02:29:38.987Z,1.75
2022-10-24T02:32:11.915Z,1.75
2022-10-24T02:34:39.818Z,1.55
2022-10-24T02:37:09.385Z,1.70
2022-10-24T02:39:38.099Z,1.92
2022-10-24T02:42:06.971Z,1.67
2022-10-24T02:44:34.791Z,1.90
2022-10-24T02:47:04.341Z,2.15
2022-10-24T02:49:31.170Z,1.33
2022-10-24T02:51:59.374Z,1.50
2022-10-24T02:54:26.422Z,1.45
2022-10-24T02:56:57.957Z,2.00
2022-10-24T02:59:24.677Z,1.70
2022-10-24T03:01:51.567Z,1.40
2022-10-24T03:04:18.365Z,1.70
2022-10-24T03:06:45.235Z,1.55
2022-10-24T03:09:11.942Z,1.90
2022-10-24T03:11:39.112Z,2.10
2022-10-24T03:14:06.004Z,1.50
2022-10-24T03:16:32.862Z,1.63
2022-10-24T03:18:59.556Z,1.25
2022-10-24T03:21:26.451Z,1.88
2022-10-24T03:23:53.364Z,1.58
2022-10-24T03:26:20.324Z,1.70
2022-10-24T03:28:47.171Z,1.20
2022-10-24T03:31:14.255Z,1.40
2022-10-24T03:33:41.239Z,1.45
2022-10-24T03:36:08.515Z,1.67
2022-10-24T03:38:35.176Z,1.50
2022-10-24T03:41:02.142Z,1.45
2022-10-24T03:43:28.812Z,1.30
2022-10-24T03:45:55.503Z,1.58
2022-10-24T03:48:22.163Z,1.20
2022-10-24T03:50:49.000Z,1.60
2022-10-24T03:53:15.676Z,1.13
2022-10-24T03:55:42.376Z,1.30
2022-10-24T03:58:09.106Z,1.50
2022-10-24T04:00:40.212Z,1.08
2022-10-24T04:03:07.796Z,1.42
2022-10-24T04:05:34.518Z,1.25
2022-10-24T04:08:01.564Z,1.50
2022-10-24T04:10:28.943Z,1.30
2022-10-24T04:12:55.728Z,1.55
2022-10-24T04:15:22.377Z,1.20
2022-10-24T04:17:49.091Z,1.33
2022-10-24T04:20:20.035Z,1.10
2022-10-24T04:22:48.077Z,1.40
2022-10-24T04:25:16.303Z,1.27
2022-10-24T04:27:43.187Z,1.80
2022-10-24T04:30:16.386Z,1.10
2022-10-24T04:32:44.980Z,1.10
2022-10-24T04:35:12.462Z,1.35
2022-10-24T04:37:39.283Z,1.15
2022-10-24T04:40:06.727Z,1.33
2022-10-24T04:42:33.471Z,1.10
2022-10-24T04:45:00.224Z,1.13
2022-10-24T04:47:27.047Z,1.00
2022-10-24T04:49:53.751Z,1.38
2022-10-24T04:52:20.492Z,1.58
2022-10-24T04:54:47.185Z,1.33
2022-10-24T04:57:13.853Z,1.50
2022-10-24T04:59:40.486Z,1.08
2022-10-24T05:02:07.494Z,1.23
2022-10-24T05:04:34.384Z,1.00
2022-10-24T05:07:01.862Z,1.52
2022-10-24T05:09:28.721Z,1.00
2022-10-24T05:11:56.588Z,1.05
2022-10-24T05:14:24.165Z,1.15
2022-10-24T05:16:50.912Z,1.08
2022-10-24T05:19:18.153Z,1.20
2022-10-24T05:21:45.195Z,0.98
2022-10-24T05:24:11.998Z,1.27
2022-10-24T05:26:38.757Z,1.20
2022-10-24T05:33:58.952Z,1.20
2022-10-24T05:36:25.630Z,1.30
2022-10-24T05:38:52.470Z,1.40
2022-10-24T05:41:19.386Z,0.90
2022-10-24T05:43:46.007Z,1.20
2022-10-24T05:46:12.691Z,1.48
2022-10-24T05:48:39.374Z,1.25
2022-10-24T05:51:06.203Z,1.00
2022-10-24T05:53:32.903Z,1.10
2022-10-24T05:55:59.755Z,1.45
2022-10-24T05:58:27.477Z,1.23
2022-10-24T06:00:54.470Z,1.35
2022-10-24T06:03:21.874Z,1.35
2022-10-24T06:05:49.252Z,1.15
2022-10-24T06:08:16.242Z,1.00
2022-10-24T06:10:47.843Z,1.23
2022-10-24T06:13:15.225Z,1.13
2022-10-24T06:15:43.384Z,1.17
2022-10-24T06:18:10.465Z,1.40
2022-10-24T06:20:37.900Z,1.13
2022-10-24T06:23:04.590Z,1.23
2022-10-24T06:25:31.583Z,1.50
2022-10-24T06:27:58.493Z,1.25
2022-10-24T06:30:25.381Z,1.20
2022-10-24T06:32:52.299Z,1.08
2022-10-24T06:35:19.830Z,1.10
2022-10-24T06:37:48.274Z,1.27
2022-10-24T06:40:17.125Z,1.20
2022-10-24T06:42:43.998Z,1.23
2022-10-24T06:45:11.869Z,1.40
2022-10-24T06:47:38.728Z,1.65
2022-10-24T06:50:06.307Z,1.30
2022-10-24T06:52:33.097Z,1.27
2022-10-24T06:54:59.787Z,1.33
2022-10-24T06:57:26.524Z,1.75
2022-10-24T06:59:53.834Z,1.33
2022-10-24T07:02:20.878Z,1.30
2022-10-24T07:04:47.848Z,1.80
2022-10-24T07:07:20.534Z,1.52
2022-10-24T07:09:54.530Z,1.77
2022-10-24T07:12:24.924Z,1.00
2022-10-24T07:14:53.182Z,1.67
2022-10-24T07:17:20.715Z,1.40
2022-10-24T07:19:53.928Z,1.58
2022-10-24T07:22:20.889Z,1.20
2022-10-24T07:24:54.107Z,1.10
2022-10-24T07:27:21.886Z,1.20
2022-10-24T07:29:48.920Z,1.65
2022-10-24T07:32:15.770Z,1.33
2022-10-24T07:34:42.652Z,2.08
2022-10-24T07:37:09.519Z,1.25
2022-10-24T07:39:37.728Z,1.80
2022-10-24T07:42:04.714Z,1.42
2022-10-24T07:44:31.536Z,1.50
2022-10-24T07:46:58.271Z,1.88
2022-10-24T07:49:26.443Z,1.80
2022-10-24T07:51:54.607Z,1.95
2022-10-24T07:56:49.188Z,2.25
2022-10-24T07:59:37.006Z,1.50
2022-10-24T08:02:02.796Z,1.45
2022-10-24T08:04:30.525Z,1.55
2022-10-24T08:06:57.500Z,1.50
2022-10-24T08:09:24.749Z,1.48
2022-10-24T08:11:51.730Z,1.77
2022-10-24T08:14:18.462Z,1.70
2022-10-24T08:16:45.178Z,1.38
2022-10-24T08:19:12.694Z,1.42
2022-10-24T08:21:39.736Z,1.42
2022-10-24T08:24:06.832Z,1.08
2022-10-24T08:26:33.642Z,1.30
2022-10-24T08:29:02.164Z,1.45
2022-10-24T08:31:28.864Z,1.17
2022-10-24T08:33:56.071Z,1.50
2022-10-24T08:36:31.277Z,1.30
2022-10-24T08:38:58.503Z,1.27
2022-10-24T08:41:37.624Z,1.40
2022-10-24T08:44:28.212Z,1.33
2022-10-24T08:47:00.097Z,1.60
2022-10-24T08:49:33.176Z,1.50
2022-10-24T08:52:22.856Z,2.00
2022-10-24T08:54:52.362Z,1.58
2022-10-24T09:00:07.954Z,1.20
2022-10-24T09:02:39.616Z,1.20
2022-10-24T09:05:26.086Z,1.52
2022-10-24T09:08:04.331Z,1.52
2022-10-24T09:10:59.800Z,1.17
2022-10-24T09:13:27.866Z,1.83
2022-10-24T09:15:55.369Z,1.45
2022-10-24T09:18:34.659Z,1.77
2022-10-24T09:21:03.001Z,1.30
2022-10-24T09:23:32.465Z,0.98
2022-10-24T09:25:59.606Z,1.52
2022-10-24T09:28:26.687Z,1.70
2022-10-24T09:30:53.704Z,1.00
2022-10-24T09:33:30.704Z,1.33
2022-10-24T09:36:02.984Z,1.20
2022-10-24T09:41:16.746Z,1.25
2022-10-24T09:43:56.221Z,1.30
2022-10-24T09:46:26.543Z,1.58
2022-10-24T09:48:59.247Z,1.40
2022-10-24T09:51:42.604Z,1.50
2022-10-24T09:54:23.543Z,1.27
2022-10-24T09:56:59.728Z,1.00
2022-10-24T09:59:44.495Z,1.40
2022-10-24T10:02:12.680Z,1.60
2022-10-24T10:04:43.297Z,1.42
2022-10-24T10:07:12.660Z,1.08
2022-10-24T10:09:56.697Z,1.10
2022-10-24T10:12:36.845Z,1.42
2022-10-24T10:15:27.025Z,1.15
2022-10-24T10:17:57.516Z,1.73
2022-10-24T10:20:42.488Z,1.45
2022-10-24T10:23:28.483Z,1.40
2022-10-24T10:26:23.415Z,1.00
2022-10-24T10:29:00.296Z,1.10
2022-10-24T10:31:44.851Z,1.27
2022-10-24T10:34:22.298Z,1.48
2022-10-24T10:36:49.291Z,1.38
2022-10-24T10:39:31.020Z,1.20
2022-10-24T10:42:09.325Z,1.63
2022-10-24T10:44:53.353Z,1.20
2022-10-24T10:47:27.586Z,1.42
2022-10-24T10:49:58.379Z,1.13
2022-10-24T10:52:45.990Z,1.52
2022-10-24T10:55:19.566Z,1.38
2022-10-24T10:57:58.641Z,1.60
2022-10-24T11:00:46.931Z,1.17
2022-10-24T11:03:34.568Z,1.65
2022-10-24T11:06:30.786Z,1.55
2022-10-24T11:09:22.157Z,1.35
2022-10-24T11:11:57.723Z,0.90
2022-10-24T11:14:45.129Z,1.13
2022-10-24T11:17:24.055Z,1.38
2022-10-24T11:19:58.653Z,1.52
2022-10-24T11:22:29.983Z,1.20
2022-10-24T11:25:37.217Z,2.03
2022-10-24T11:28:18.034Z,1.40
2022-10-24T11:30:52.030Z,1.60
2022-10-24T11:33:27.035Z,1.33
2022-10-24T11:36:02.570Z,1.23
2022-10-24T11:38:32.327Z,1.52
2022-10-24T11:41:16.618Z,1.42
2022-10-24T11:43:46.693Z,1.10
2022-10-24T11:46:22.069Z,1.20
2022-10-24T11:49:29.477Z,1.30
2022-10-24T11:52:11.067Z,1.95
2022-10-24T11:55:07.788Z,1.43
2022-10-24T11:57:35.823Z,1.48
2022-10-24T12:00:03.595Z,1.40
2022-10-24T12:03:18.755Z,1.55
2022-10-24T12:05:52.245Z,1.33
2022-10-24T12:08:30.861Z,1.60
2022-10-24T12:11:16.387Z,1.30
2022-10-24T12:13:58.393Z,1.38
2022-10-24T12:16:34.099Z,1.60
2022-10-24T12:19:14.159Z,1.40
2022-10-24T12:21:47.804Z,1.42
2022-10-24T12:24:33.265Z,1.60
2022-10-24T12:27:06.968Z,1.00
2022-10-24T12:29:36.187Z,1.17
2022-10-24T12:32:40.819Z,1.38
2022-10-24T12:35:35.399Z,1.60
2022-10-24T12:38:14.219Z,1.67
2022-10-24T12:40:55.448Z,1.02
2022-10-24T12:43:43.348Z,1.20
2022-10-24T12:46:19.040Z,1.23
2022-10-24T12:49:08.635Z,1.33
2022-10-24T12:51:40.366Z,1.35
2022-10-24T12:54:13.005Z,1.30
2022-10-24T12:57:02.530Z,1.00
2022-10-24T12:59:31.632Z,1.00
2022-10-24T13:02:13.427Z,1.13
2022-10-24T13:05:11.354Z,1.55
2022-10-24T13:07:53.730Z,1.10
2022-10-24T13:10:49.151Z,1.30
2022-10-24T13:13:21.540Z,1.10
2022-10-24T13:15:53.496Z,1.40
2022-10-24T13:18:41.960Z,1.10
2022-10-24T13:21:33.280Z,1.40
2022-10-24T13:24:22.507Z,1.63
2022-10-24T13:26:58.154Z,2.08
2022-10-24T13:29:27.769Z,1.45
2022-10-24T13:32:18.723Z,1.83
2022-10-24T13:34:50.584Z,1.90
2022-10-24T13:37:35.707Z,1.60
2022-10-24T13:40:11.163Z,1.70
2022-10-24T13:43:04.731Z,1.70
2022-10-24T13:45:52.197Z,1.83
2022-10-24T13:48:21.617Z,2.15
2022-10-24T13:51:12.844Z,1.85
2022-10-24T13:53:47.919Z,1.65
2022-10-24T13:56:15.111Z,1.63
2022-10-24T13:58:44.650Z,2.17
2022-10-24T14:01:25.137Z,1.77
2022-10-24T14:03:53.248Z,1.85
2022-10-24T14:06:33.756Z,1.60
2022-10-24T14:09:07.516Z,1.63
2022-10-24T14:11:39.266Z,1.80
2022-10-24T14:14:26.922Z,1.45
2022-10-24T14:17:28.729Z,1.48
2022-10-24T14:19:57.442Z,1.50
2022-10-24T14:22:28.507Z,1.23
2022-10-24T14:24:56.314Z,1.10
2022-10-24T14:27:23.515Z,1.02
2022-10-24T14:29:53.839Z,1.60
2022-10-24T14:32:20.874Z,2.35
2022-10-24T14:34:49.610Z,1.38
2022-10-24T14:37:31.075Z,1.52
2022-10-24T14:39:58.975Z,1.40
2022-10-24T14:42:27.120Z,1.42
2022-10-24T14:44:58.343Z,1.42
2022-10-24T14:47:36.302Z,1.80
2022-10-24T14:50:03.243Z,1.55
2022-10-24T14:52:36.370Z,1.38
2022-10-24T14:55:21.909Z,2.03
2022-10-24T14:57:51.206Z,1.58
2022-10-24T15:00:24.891Z,1.60
2022-10-24T15:02:54.261Z,1.58
2022-10-24T15:05:22.236Z,1.40
2022-10-24T15:08:16.833Z,1.75
2022-10-24T15:10:43.099Z,1.75
2022-10-24T15:13:21.387Z,1.58
2022-10-24T15:15:58.547Z,1.30
2022-10-24T15:18:41.125Z,1.60
2022-10-24T15:21:14.316Z,1.70
2022-10-24T15:23:53.708Z,1.30
2022-10-24T15:26:42.709Z,1.85
2022-10-24T15:29:12.151Z,1.45
2022-10-24T15:31:44.542Z,1.45
2022-10-24T15:34:23.646Z,1.88
2022-10-24T15:36:52.547Z,1.38
2022-10-24T15:39:27.223Z,1.50
2022-10-24T15:41:55.096Z,1.30
2022-10-24T15:44:30.078Z,1.35
2022-10-24T15:46:57.178Z,1.08
2022-10-24T15:49:24.223Z,1.42
2022-10-24T15:51:51.774Z,1.25
2022-10-24T15:54:20.280Z,1.30
2022-10-24T15:56:47.631Z,1.95
2022-10-24T15:59:14.853Z,1.38
2022-10-24T16:01:47.500Z,1.42
2022-10-24T16:04:15.153Z,1.50
2022-10-24T16:06:43.453Z,1.80
2022-10-24T16:09:20.084Z,1.40
2022-10-24T16:11:47.099Z,1.30
2022-10-24T16:14:19.380Z,1.77
2022-10-24T16:19:13.194Z,1.63
2022-10-24T16:21:41.383Z,2.15
2022-10-24T16:24:09.491Z,1.83
2022-10-24T16:26:36.580Z,1.50
2022-10-24T16:29:03.732Z,1.80
2022-10-24T16:31:30.614Z,2.00
2022-10-24T16:33:58.451Z,2.10
2022-10-24T16:36:25.481Z,1.77
2022-10-24T16:38:52.881Z,1.73
2022-10-24T16:41:25.167Z,1.92
2022-10-24T16:46:27.971Z,2.05
2022-10-24T16:48:55.351Z,2.03
2022-10-24T16:51:32.335Z,2.40
2022-10-24T16:54:00.986Z,1.95
2022-10-24T16:56:28.056Z,1.92
2022-10-24T16:58:54.821Z,2.13
2022-10-24T17:01:23.045Z,2.05
2022-10-24T17:03:49.846Z,2.40
2022-10-24T17:06:16.546Z,2.13
2022-10-24T17:08:43.568Z,2.72
2022-10-24T17:11:32.131Z,2.50
2022-10-24T17:13:58.251Z,2.60
2022-10-24T17:16:25.187Z,2.42
2022-10-24T17:19:05.527Z,2.08
2022-10-24T17:21:45.508Z,2.08
2022-10-24T17:24:16.130Z,2.45
2022-10-24T17:26:42.899Z,2.13
2022-10-24T17:29:26.604Z,3.13
2022-10-24T17:31:53.996Z,2.13
2022-10-24T17:34:21.131Z,2.67
2022-10-24T17:36:59.314Z,3.72
2022-10-24T17:39:31.225Z,3.58
2022-10-24T17:41:58.066Z,3.60
2022-10-24T17:44:25.302Z,4.00
2022-10-24T17:46:55.908Z,3.22
2022-10-24T17:49:25.311Z,3.20
2022-10-24T17:51:52.037Z,2.90
2022-10-24T17:54:19.156Z,2.80
2022-10-24T17:56:45.948Z,2.58
2022-10-24T17:59:12.833Z,2.70
2022-10-24T18:01:40.027Z,2.45
2022-10-24T18:04:07.203Z,2.35
2022-10-24T18:06:35.119Z,2.67
2022-10-24T18:09:04.074Z,2.67
2022-10-24T18:11:30.886Z,2.75
2022-10-24T18:13:57.532Z,3.00
2022-10-24T18:16:26.277Z,2.72
2022-10-24T18:18:56.354Z,2.67
2022-10-24T18:21:24.944Z,2.70
2022-10-24T18:23:53.300Z,3.28
2022-10-24T18:26:23.128Z,3.00
2022-10-24T18:28:52.198Z,3.35
2022-10-24T18:31:24.659Z,3.00
2022-10-24T18:33:52.101Z,3.60
2022-10-24T18:36:25.733Z,2.85
2022-10-24T18:38:57.312Z,3.42
2022-10-24T18:41:30.180Z,2.87
2022-10-24T18:43:59.670Z,3.50
2022-10-24T18:46:28.289Z,3.75
2022-10-24T18:48:55.312Z,3.50
2022-10-24T18:51:35.980Z,4.78
2022-10-24T18:54:16.775Z,3.80
2022-10-24T18:56:43.962Z,3.38
2022-10-24T18:59:19.734Z,3.70
2022-10-24T19:02:05.548Z,3.47
2022-10-24T19:04:38.146Z,2.90
2022-10-24T19:07:05.149Z,3.17
2022-10-24T19:09:32.020Z,5.05
2022-10-24T19:11:58.983Z,5.50
2022-10-24T19:14:25.951Z,4.05
2022-10-24T19:16:53.155Z,3.63
2022-10-24T19:19:26.286Z,3.53
2022-10-24T19:21:53.404Z,3.30
2022-10-24T19:24:20.485Z,3.20
2022-10-24T19:26:47.722Z,3.63
2022-10-24T19:29:14.473Z,3.22
2022-10-24T19:31:41.299Z,3.53
2022-10-24T19:34:10.309Z,3.67
2022-10-24T19:36:37.572Z,3.33
2022-10-24T19:39:04.709Z,3.65
2022-10-24T19:41:31.999Z,3.50
2022-10-24T19:43:59.022Z,3.83
2022-10-24T19:46:25.921Z,4.07
2022-10-24T19:48:53.119Z,3.60
2022-10-24T19:51:20.995Z,3.17
2022-10-24T19:53:49.527Z,3.78
2022-10-24T19:56:25.030Z,3.45
2022-10-24T19:58:53.760Z,3.47
2022-10-24T20:01:23.675Z,2.80
2022-10-24T20:03:51.338Z,3.85
2022-10-24T20:06:18.851Z,3.28
2022-10-24T20:08:46.717Z,3.03
2022-10-24T20:11:15.296Z,3.00
2022-10-24T20:13:43.726Z,3.22
2022-10-24T20:16:11.429Z,4.60
2022-10-24T20:21:08.365Z,3.25
2022-10-24T20:23:36.311Z,3.60
2022-10-24T20:26:10.056Z,3.33
2022-10-24T20:28:39.397Z,3.38
2022-10-24T20:31:07.205Z,3.20
2022-10-24T20:33:33.858Z,3.78
2022-10-24T20:36:01.256Z,3.65
2022-10-24T20:38:28.812Z,3.58
2022-10-24T20:41:01.220Z,3.65
2022-10-24T20:45:55.556Z,3.10
2022-10-24T20:48:25.135Z,4.10
2022-10-24T20:50:51.773Z,3.65
2022-10-24T20:53:20.151Z,3.28
2022-10-24T20:55:46.789Z,3.53
2022-10-24T20:58:13.601Z,3.17
2022-10-24T21:03:11.899Z,3.28
2022-10-24T21:05:38.647Z,4.28
2022-10-24T21:08:05.551Z,4.20
2022-10-24T21:10:32.312Z,4.13
2022-10-24T21:12:59.031Z,4.50
2022-10-24T21:15:25.681Z,3.88
2022-10-24T21:17:52.331Z,3.50
2022-10-24T21:20:19.227Z,3.42
2022-10-24T21:22:45.972Z,3.97
2022-10-24T21:25:12.600Z,3.97
2022-10-24T21:27:39.230Z,3.78
2022-10-24T21:30:08.875Z,4.13
2022-10-24T21:32:38.883Z,4.03
2022-10-24T21:35:05.836Z,3.83
2022-10-24T21:37:32.791Z,4.07
2022-10-24T21:39:59.520Z,3.85
2022-10-24T21:42:26.195Z,3.90
2022-10-24T21:44:52.892Z,3.55
2022-10-24T21:47:19.531Z,4.15
2022-10-24T21:49:46.287Z,4.60
2022-10-24T21:52:12.896Z,3.85
2022-10-24T21:54:39.584Z,3.78
2022-10-24T21:57:06.303Z,3.70
2022-10-24T21:59:32.992Z,3.85
2022-10-24T22:01:59.723Z,3.50
2022-10-24T22:04:26.703Z,3.95
2022-10-24T22:06:53.345Z,3.40
2022-10-24T22:09:23.455Z,3.70
2022-10-24T22:11:50.333Z,3.40
2022-10-24T22:14:17.748Z,3.63
2022-10-24T22:16:47.245Z,3.70
2022-10-24T22:19:14.339Z,3.53
2022-10-24T22:21:46.495Z,4.05
2022-10-24T22:24:16.604Z,4.20
2022-10-24T22:26:44.661Z,3.63
2022-10-24T22:29:14.871Z,4.10
2022-10-24T22:31:42.463Z,3.67
2022-10-24T22:34:15.488Z,3.30
2022-10-24T22:36:54.371Z,3.30
2022-10-24T22:39:23.941Z,3.80
2022-10-24T22:41:51.647Z,3.38
2022-10-24T22:44:22.939Z,3.53
2022-10-24T22:47:07.684Z,3.42
2022-10-24T22:49:57.160Z,3.55
2022-10-24T22:52:24.129Z,3.10
2022-10-24T22:54:51.281Z,3.40
2022-10-24T22:57:18.472Z,3.72
2022-10-24T22:59:45.694Z,3.00
2022-10-24T23:02:29.037Z,3.20
2022-10-24T23:05:07.935Z,2.65
2022-10-24T23:07:37.971Z,3.40
2022-10-24T23:10:08.749Z,2.97
2022-10-24T23:12:37.507Z,3.63
2022-10-24T23:15:04.703Z,3.40
2022-10-24T23:17:32.774Z,2.97
2022-10-24T23:19:59.934Z,2.83
2022-10-24T23:22:33.127Z,2.60
2022-10-24T23:25:01.325Z,2.80
2022-10-24T23:27:35.514Z,3.50
2022-10-24T23:30:15.335Z,4.03
2022-10-24T23:32:42.503Z,3.42
2022-10-24T23:35:11.994Z,4.20
2022-10-24T23:37:47.408Z,4.65
2022-10-24T23:40:16.879Z,4.72
2022-10-24T23:42:48.041Z,3.90
2022-10-24T23:45:16.000Z,5.07
2022-10-24T23:48:09.102Z,4.25
2022-10-24T23:50:56.015Z,4.82
2022-10-24T23:53:48.688Z,4.32
2022-10-24T23:56:17.230Z,4.78
2022-10-24T23:58:44.361Z,5.28
